createdAt,value
2016-09-26T00:00:08.183Z,959.71
2016-09-26T00:01:07.751Z,959.70
2016-09-26T00:02:07.319Z,959.70
2016-09-26T00:03:07.808Z,959.69
2016-09-26T00:04:07.305Z,959.74
2016-09-26T00:05:07.783Z,959.73
2016-09-26T00:06:07.393Z,959.77
2016-09-26T00:07:08.013Z,959.78
2016-09-26T00:08:07.565Z,959.72
2016-09-26T00:09:08.225Z,959.79
2016-09-26T00:10:07.784Z,959.76
2016-09-26T00:11:07.588Z,959.76
2016-09-26T00:12:08.147Z,959.81
2016-09-26T00:13:07.737Z,959.76
2016-09-26T00:14:08.309Z,959.75
2016-09-26T00:15:07.799Z,959.80
2016-09-26T00:16:07.355Z,959.79
2016-09-26T00:17:07.975Z,959.77
2016-09-26T00:18:07.535Z,959.76
2016-09-26T00:19:08.206Z,959.78
2016-09-26T00:20:07.689Z,959.78
2016-09-26T00:21:08.311Z,959.77
2016-09-26T00:22:07.861Z,959.81
2016-09-26T00:23:07.419Z,959.82
2016-09-26T00:24:07.985Z,959.83
2016-09-26T00:25:07.613Z,959.84
2016-09-26T00:26:08.281Z,959.87
2016-09-26T00:27:07.859Z,959.84
2016-09-26T00:28:07.345Z,959.85
2016-09-26T00:29:07.929Z,959.83
2016-09-26T00:30:07.421Z,959.83
2016-09-26T00:31:07.970Z,959.84
2016-09-26T00:32:07.482Z,959.82
2016-09-26T00:33:07.999Z,959.80
2016-09-26T00:34:07.528Z,959.76
2016-09-26T00:35:08.090Z,959.72
2016-09-26T00:36:07.577Z,959.74
2016-09-26T00:37:08.143Z,959.70
2016-09-26T00:38:07.782Z,959.70
2016-09-26T00:39:07.263Z,959.67
2016-09-26T00:40:07.908Z,959.65
2016-09-26T00:41:07.415Z,959.64
2016-09-26T00:42:07.923Z,959.66
2016-09-26T00:43:07.498Z,959.66
2016-09-26T00:44:08.066Z,959.66
2016-09-26T00:45:07.570Z,959.70
2016-09-26T00:46:08.080Z,959.62
2016-09-26T00:47:07.643Z,959.63
2016-09-26T00:48:08.243Z,959.63
2016-09-26T00:49:07.785Z,959.65
2016-09-26T00:50:07.335Z,959.65
2016-09-26T00:51:07.991Z,959.70
2016-09-26T00:52:07.687Z,959.73
2016-09-26T00:53:08.237Z,959.69
2016-09-26T00:54:07.721Z,959.73
2016-09-26T00:55:08.204Z,959.71
2016-09-26T00:56:07.995Z,959.72
2016-09-26T00:57:07.592Z,959.75
2016-09-26T00:58:08.209Z,959.76
2016-09-26T00:59:07.860Z,959.76
2016-09-26T01:00:07.541Z,959.79
2016-09-26T01:01:08.231Z,959.74
2016-09-26T01:02:08.295Z,959.77
2016-09-26T01:03:07.402Z,959.78
2016-09-26T01:04:07.880Z,959.77
2016-09-26T01:05:07.601Z,959.78
2016-09-26T01:06:08.334Z,959.77
2016-09-26T01:07:08.272Z,959.82
2016-09-26T01:08:07.863Z,959.81
2016-09-26T01:09:07.544Z,959.83
2016-09-26T01:10:08.207Z,959.83
2016-09-26T01:11:07.840Z,959.84
2016-09-26T01:12:07.533Z,959.85
2016-09-26T01:13:08.089Z,959.86
2016-09-26T01:14:07.662Z,959.81
2016-09-26T01:15:08.312Z,959.79
2016-09-26T01:16:07.946Z,959.85
2016-09-26T01:17:07.663Z,959.82
2016-09-26T01:18:08.663Z,959.79
2016-09-26T01:19:08.234Z,959.83
2016-09-26T01:20:07.843Z,959.82
2016-09-26T01:21:07.421Z,959.84
2016-09-26T01:22:07.913Z,959.88
2016-09-26T01:23:07.742Z,959.89
2016-09-26T01:24:08.330Z,959.93
2016-09-26T01:25:07.824Z,959.95
2016-09-26T01:26:07.334Z,959.94
2016-09-26T01:27:07.884Z,959.91
2016-09-26T01:28:07.403Z,959.91
2016-09-26T01:29:08.207Z,959.89
2016-09-26T01:30:07.675Z,959.90
2016-09-26T01:31:08.335Z,959.89
2016-09-26T01:32:07.584Z,959.91
2016-09-26T01:33:08.238Z,959.90
2016-09-26T01:34:07.895Z,959.90
2016-09-26T01:35:07.633Z,959.88
2016-09-26T01:36:08.176Z,959.89
2016-09-26T01:37:07.749Z,959.84
2016-09-26T01:38:08.338Z,959.85
2016-09-26T01:39:08.106Z,959.86
2016-09-26T01:40:07.665Z,959.83
2016-09-26T01:41:08.454Z,959.84
2016-09-26T01:42:08.135Z,959.85
2016-09-26T01:43:07.745Z,959.83
2016-09-26T01:44:08.240Z,959.84
2016-09-26T01:45:13.445Z,959.81
2016-09-26T01:46:08.073Z,959.80
2016-09-26T01:47:08.460Z,959.80
2016-09-26T01:48:08.046Z,959.73
2016-09-26T01:49:07.549Z,959.73
2016-09-26T01:50:08.135Z,959.72
2016-09-26T01:51:07.697Z,959.74
2016-09-26T01:52:07.876Z,959.69
2016-09-26T01:53:07.465Z,959.70
2016-09-26T01:54:08.054Z,959.68
2016-09-26T01:55:07.893Z,959.74
2016-09-26T01:56:07.415Z,959.71
2016-09-26T01:57:07.963Z,959.70
2016-09-26T01:58:07.476Z,959.70
2016-09-26T01:59:08.013Z,959.70
2016-09-26T02:00:07.545Z,959.67
2016-09-26T02:01:08.146Z,959.67
2016-09-26T02:02:07.747Z,959.66
2016-09-26T02:03:07.446Z,959.63
2016-09-26T02:04:08.149Z,959.66
2016-09-26T02:05:07.721Z,959.62
2016-09-26T02:06:08.322Z,959.66
2016-09-26T02:07:07.813Z,959.63
2016-09-26T02:08:08.552Z,959.65
2016-09-26T02:09:08.305Z,959.63
2016-09-26T02:10:08.111Z,959.68
2016-09-26T02:11:07.559Z,959.68
2016-09-26T02:12:08.034Z,959.68
2016-09-26T02:13:07.505Z,959.66
2016-09-26T02:14:08.310Z,959.66
2016-09-26T02:15:08.133Z,959.63
2016-09-26T02:16:07.595Z,959.67
2016-09-26T02:17:08.216Z,959.64
2016-09-26T02:18:08.045Z,959.64
2016-09-26T02:19:07.591Z,959.58
2016-09-26T02:20:08.017Z,959.63
2016-09-26T02:21:08.135Z,959.64
2016-09-26T02:22:07.895Z,959.60
2016-09-26T02:23:07.428Z,959.64
2016-09-26T02:24:07.906Z,959.63
2016-09-26T02:25:07.465Z,959.66
2016-09-26T02:26:08.064Z,959.63
2016-09-26T02:27:07.553Z,959.65
2016-09-26T02:28:08.240Z,959.65
2016-09-26T02:29:08.249Z,959.66
2016-09-26T02:30:07.786Z,959.72
2016-09-26T02:31:07.502Z,959.70
2016-09-26T02:32:08.122Z,959.69
2016-09-26T02:33:08.264Z,959.70
2016-09-26T02:34:08.018Z,959.71
2016-09-26T02:35:07.644Z,959.67
2016-09-26T02:36:08.167Z,959.70
2016-09-26T02:37:07.636Z,959.73
2016-09-26T02:38:08.291Z,959.67
2016-09-26T02:39:07.802Z,959.74
2016-09-26T02:40:08.198Z,959.73
2016-09-26T02:41:07.659Z,959.73
2016-09-26T02:42:08.313Z,959.78
2016-09-26T02:43:08.041Z,959.76
2016-09-26T02:44:07.678Z,959.82
2016-09-26T02:45:08.318Z,959.79
2016-09-26T02:46:07.789Z,959.78
2016-09-26T02:47:07.272Z,959.78
2016-09-26T02:48:07.769Z,959.72
2016-09-26T02:49:08.115Z,959.77
2016-09-26T02:50:07.656Z,959.77
2016-09-26T02:51:08.197Z,959.76
2016-09-26T02:52:07.850Z,959.75
2016-09-26T02:53:07.392Z,959.71
2016-09-26T02:54:08.147Z,959.75
2016-09-26T02:55:07.706Z,959.72
2016-09-26T02:56:08.277Z,959.75
2016-09-26T02:57:07.855Z,959.71
2016-09-26T02:58:07.576Z,959.72
2016-09-26T02:59:08.196Z,959.71
2016-09-26T03:00:07.663Z,959.70
2016-09-26T03:01:08.204Z,959.70
2016-09-26T03:02:07.703Z,959.69
2016-09-26T03:03:08.292Z,959.68
2016-09-26T03:04:08.130Z,959.72
2016-09-26T03:05:07.660Z,959.76
2016-09-26T03:06:07.886Z,959.75
2016-09-26T03:07:07.408Z,959.77
2016-09-26T03:08:07.938Z,959.81
2016-09-26T03:09:07.519Z,959.79
2016-09-26T03:10:08.175Z,959.80
2016-09-26T03:11:07.613Z,959.83
2016-09-26T03:12:08.117Z,959.81
2016-09-26T03:13:07.827Z,959.83
2016-09-26T03:14:07.307Z,959.78
2016-09-26T03:15:08.158Z,959.83
2016-09-26T03:16:07.938Z,959.83
2016-09-26T03:17:07.616Z,959.85
2016-09-26T03:18:08.188Z,959.86
2016-09-26T03:19:07.949Z,959.88
2016-09-26T03:20:07.506Z,959.91
2016-09-26T03:21:08.419Z,959.92
2016-09-26T03:22:07.929Z,959.91
2016-09-26T03:23:07.489Z,959.94
2016-09-26T03:24:08.030Z,959.87
2016-09-26T03:25:07.557Z,959.93
2016-09-26T03:26:08.257Z,959.93
2016-09-26T03:27:07.832Z,959.93
2016-09-26T03:28:07.357Z,959.92
2016-09-26T03:29:07.856Z,959.94
2016-09-26T03:30:07.393Z,959.94
2016-09-26T03:31:07.989Z,959.93
2016-09-26T03:32:07.490Z,959.94
2016-09-26T03:33:08.058Z,959.95
2016-09-26T03:34:07.610Z,959.96
2016-09-26T03:35:08.152Z,960.00
2016-09-26T03:36:07.705Z,959.98
2016-09-26T03:37:08.237Z,960.00
2016-09-26T03:38:07.697Z,959.98
2016-09-26T03:39:08.248Z,959.96
2016-09-26T03:40:07.791Z,959.98
2016-09-26T03:41:07.399Z,959.95
2016-09-26T03:42:07.958Z,959.99
2016-09-26T03:43:07.541Z,959.96
2016-09-26T03:44:08.036Z,960.02
2016-09-26T03:45:07.536Z,959.96
2016-09-26T03:46:08.054Z,959.99
2016-09-26T03:47:07.602Z,959.99
2016-09-26T03:48:08.052Z,960.05
2016-09-26T03:49:07.678Z,959.98
2016-09-26T03:50:08.305Z,959.99
2016-09-26T03:51:07.815Z,959.99
2016-09-26T03:52:07.368Z,960.01
2016-09-26T03:53:07.937Z,960.01
2016-09-26T03:54:07.518Z,960.03
2016-09-26T03:55:08.095Z,960.02
2016-09-26T03:56:07.918Z,960.04
2016-09-26T03:57:07.448Z,960.04
2016-09-26T03:58:08.008Z,960.01
2016-09-26T03:59:07.582Z,959.98
2016-09-26T04:00:08.144Z,960.00
2016-09-26T04:01:07.758Z,960.01
2016-09-26T04:02:08.397Z,960.00
2016-09-26T04:03:07.974Z,959.97
2016-09-26T04:04:07.514Z,959.98
2016-09-26T04:05:08.037Z,959.99
2016-09-26T04:06:07.631Z,959.96
2016-09-26T04:07:08.205Z,959.97
2016-09-26T04:08:07.765Z,960.00
2016-09-26T04:09:07.278Z,959.96
2016-09-26T04:10:07.949Z,959.92
2016-09-26T04:11:07.553Z,959.94
2016-09-26T04:12:08.115Z,959.95
2016-09-26T04:13:07.638Z,959.93
2016-09-26T04:14:08.249Z,959.94
2016-09-26T04:15:07.785Z,959.94
2016-09-26T04:16:07.364Z,959.93
2016-09-26T04:17:08.049Z,959.91
2016-09-26T04:18:07.631Z,959.87
2016-09-26T04:19:08.258Z,959.86
2016-09-26T04:20:07.781Z,959.92
2016-09-26T04:21:07.302Z,959.90
2016-09-26T04:22:07.776Z,959.87
2016-09-26T04:23:07.291Z,959.89
2016-09-26T04:24:08.099Z,959.89
2016-09-26T04:25:10.510Z,959.86
2016-09-26T04:26:08.126Z,959.86
2016-09-26T04:27:07.597Z,959.90
2016-09-26T04:28:08.163Z,959.91
2016-09-26T04:29:07.678Z,959.88
2016-09-26T04:30:08.248Z,959.91
2016-09-26T04:31:07.838Z,959.95
2016-09-26T04:32:07.397Z,959.93
2016-09-26T04:33:07.905Z,959.94
2016-09-26T04:34:07.435Z,959.97
2016-09-26T04:35:07.998Z,959.96
2016-09-26T04:36:07.587Z,959.97
2016-09-26T04:37:08.193Z,960.06
2016-09-26T04:38:07.983Z,960.00
2016-09-26T04:39:07.608Z,959.97
2016-09-26T04:40:08.363Z,959.96
2016-09-26T04:41:08.168Z,959.96
2016-09-26T04:42:07.856Z,959.98
2016-09-26T04:43:07.345Z,959.98
2016-09-26T04:44:07.823Z,959.98
2016-09-26T04:45:07.316Z,959.95
2016-09-26T04:46:08.157Z,959.97
2016-09-26T04:47:07.723Z,959.95
2016-09-26T04:48:08.360Z,959.97
2016-09-26T04:49:07.927Z,960.00
2016-09-26T04:50:07.488Z,959.97
2016-09-26T04:51:08.333Z,959.97
2016-09-26T04:52:07.871Z,959.99
2016-09-26T04:53:07.408Z,959.94
2016-09-26T04:54:07.957Z,959.99
2016-09-26T04:55:07.508Z,960.02
2016-09-26T04:56:08.143Z,959.97
2016-09-26T04:57:07.946Z,960.02
2016-09-26T04:58:07.446Z,959.98
2016-09-26T04:59:08.038Z,959.96
2016-09-26T05:00:07.526Z,960.01
2016-09-26T05:01:08.056Z,959.99
2016-09-26T05:02:07.567Z,960.06
2016-09-26T05:03:08.062Z,960.01
2016-09-26T05:04:07.545Z,960.03
2016-09-26T05:05:08.125Z,960.01
2016-09-26T05:06:07.628Z,960.01
2016-09-26T05:07:08.177Z,960.00
2016-09-26T05:08:07.757Z,960.03
2016-09-26T05:09:08.237Z,960.00
2016-09-26T05:10:07.703Z,960.04
2016-09-26T05:11:08.251Z,960.07
2016-09-26T05:12:07.815Z,960.05
2016-09-26T05:13:07.377Z,960.02
2016-09-26T05:14:07.929Z,960.04
2016-09-26T05:15:07.434Z,960.07
2016-09-26T05:16:07.978Z,960.04
2016-09-26T05:17:07.721Z,960.12
2016-09-26T05:18:08.244Z,960.14
2016-09-26T05:19:07.716Z,960.13
2016-09-26T05:20:08.306Z,960.18
2016-09-26T05:21:07.785Z,960.15
2016-09-26T05:22:07.299Z,960.24
2016-09-26T05:23:07.847Z,960.29
2016-09-26T05:24:07.285Z,960.34
2016-09-26T05:25:07.861Z,960.37
2016-09-26T05:26:07.313Z,960.36
2016-09-26T05:27:07.800Z,960.43
2016-09-26T05:28:07.537Z,960.45
2016-09-26T05:29:08.076Z,960.42
2016-09-26T05:30:07.578Z,960.38
2016-09-26T05:31:08.062Z,960.46
2016-09-26T05:32:07.624Z,960.47
2016-09-26T05:33:08.178Z,960.46
2016-09-26T05:34:07.769Z,960.47
2016-09-26T05:35:07.337Z,960.49
2016-09-26T05:36:07.930Z,960.48
2016-09-26T05:37:07.465Z,960.47
2016-09-26T05:38:08.195Z,960.50
2016-09-26T05:39:07.736Z,960.47
2016-09-26T05:40:08.288Z,960.51
2016-09-26T05:41:07.855Z,960.51
2016-09-26T05:42:07.380Z,960.51
2016-09-26T05:43:07.897Z,960.47
2016-09-26T05:44:07.526Z,960.46
2016-09-26T05:45:08.086Z,960.51
2016-09-26T05:46:07.609Z,960.47
2016-09-26T05:47:08.229Z,960.52
2016-09-26T05:48:07.792Z,960.56
2016-09-26T05:49:07.247Z,960.57
2016-09-26T05:50:07.799Z,960.56
2016-09-26T05:51:07.300Z,960.52
2016-09-26T05:52:07.985Z,960.53
2016-09-26T05:53:07.534Z,960.51
2016-09-26T05:54:08.013Z,960.50
2016-09-26T05:55:07.505Z,960.47
2016-09-26T05:56:08.031Z,960.50
2016-09-26T05:57:07.565Z,960.47
2016-09-26T05:58:08.040Z,960.44
2016-09-26T05:59:07.571Z,960.44
2016-09-26T06:00:08.132Z,960.49
2016-09-26T06:01:07.695Z,960.46
2016-09-26T06:02:08.294Z,960.44
2016-09-26T06:03:07.828Z,960.42
2016-09-26T06:04:07.282Z,960.45
2016-09-26T06:05:08.133Z,960.43
2016-09-26T06:06:07.604Z,960.41
2016-09-26T06:07:08.120Z,960.40
2016-09-26T06:08:07.726Z,960.43
2016-09-26T06:09:08.226Z,960.40
2016-09-26T06:10:07.759Z,960.36
2016-09-26T06:11:07.294Z,960.34
2016-09-26T06:12:07.856Z,960.33
2016-09-26T06:13:07.441Z,960.35
2016-09-26T06:14:07.955Z,960.36
2016-09-26T06:15:07.488Z,960.35
2016-09-26T06:16:08.093Z,960.34
2016-09-26T06:17:07.754Z,960.33
2016-09-26T06:18:08.341Z,960.35
2016-09-26T06:19:07.994Z,960.39
2016-09-26T06:20:07.460Z,960.35
2016-09-26T06:21:08.015Z,960.37
2016-09-26T06:22:07.550Z,960.36
2016-09-26T06:23:08.264Z,960.37
2016-09-26T06:24:07.852Z,960.39
2016-09-26T06:25:07.542Z,960.38
2016-09-26T06:26:08.190Z,960.37
2016-09-26T06:27:07.751Z,960.41
2016-09-26T06:28:08.256Z,960.38
2016-09-26T06:29:07.883Z,960.40
2016-09-26T06:30:07.436Z,960.45
2016-09-26T06:31:08.122Z,960.40
2016-09-26T06:32:07.818Z,960.38
2016-09-26T06:33:07.395Z,960.42
2016-09-26T06:34:07.806Z,960.40
2016-09-26T06:35:07.857Z,960.41
2016-09-26T06:36:07.372Z,960.36
2016-09-26T06:37:07.855Z,960.40
2016-09-26T06:38:08.034Z,960.36
2016-09-26T06:39:07.572Z,960.41
2016-09-26T06:40:08.183Z,960.37
2016-09-26T06:41:07.764Z,960.35
2016-09-26T06:42:07.270Z,960.34
2016-09-26T06:43:07.783Z,960.31
2016-09-26T06:44:07.358Z,960.34
2016-09-26T06:45:07.923Z,960.32
2016-09-26T06:46:07.491Z,960.31
2016-09-26T06:47:08.116Z,960.33
2016-09-26T06:48:07.657Z,960.32
2016-09-26T06:49:08.205Z,960.32
2016-09-26T06:50:07.720Z,960.30
2016-09-26T06:51:08.305Z,960.29
2016-09-26T06:52:07.834Z,960.28
2016-09-26T06:53:07.288Z,960.31
2016-09-26T06:54:07.841Z,960.33
2016-09-26T06:55:07.333Z,960.36
2016-09-26T06:56:07.862Z,960.36
2016-09-26T06:57:07.325Z,960.34
2016-09-26T06:58:07.896Z,960.32
2016-09-26T06:59:07.484Z,960.32
2016-09-26T07:00:07.973Z,960.29
2016-09-26T07:01:07.448Z,960.29
2016-09-26T07:02:08.066Z,960.31
2016-09-26T07:03:07.867Z,960.32
2016-09-26T07:04:07.363Z,960.26
2016-09-26T07:05:08.032Z,960.26
2016-09-26T07:06:08.178Z,960.24
2016-09-26T07:07:07.758Z,960.28
2016-09-26T07:08:07.310Z,960.25
2016-09-26T07:09:07.884Z,960.25
2016-09-26T07:10:07.345Z,960.23
2016-09-26T07:11:07.918Z,960.26
2016-09-26T07:12:07.385Z,960.28
2016-09-26T07:13:07.973Z,960.30
2016-09-26T07:14:07.555Z,960.29
2016-09-26T07:15:07.340Z,960.27
2016-09-26T07:16:07.481Z,960.34
2016-09-26T07:17:08.154Z,960.30
2016-09-26T07:18:07.630Z,960.30
2016-09-26T07:19:08.298Z,960.28
2016-09-26T07:20:07.868Z,960.28
2016-09-26T07:21:07.427Z,960.26
2016-09-26T07:22:08.107Z,960.27
2016-09-26T07:23:07.615Z,960.27
2016-09-26T07:24:08.223Z,960.22
2016-09-26T07:25:07.806Z,960.25
2016-09-26T07:26:07.350Z,960.23
2016-09-26T07:27:07.869Z,960.25
2016-09-26T07:28:07.326Z,960.19
2016-09-26T07:29:07.957Z,960.17
2016-09-26T07:30:07.487Z,960.10
2016-09-26T07:31:08.076Z,960.10
2016-09-26T07:32:07.574Z,960.08
2016-09-26T07:33:08.108Z,960.13
2016-09-26T07:34:07.722Z,960.14
2016-09-26T07:35:08.262Z,960.18
2016-09-26T07:36:07.848Z,960.16
2016-09-26T07:37:07.437Z,960.20
2016-09-26T07:38:08.136Z,960.17
2016-09-26T07:39:08.753Z,960.20
2016-09-26T07:40:07.303Z,960.16
2016-09-26T07:41:07.909Z,960.19
2016-09-26T07:42:07.433Z,960.22
2016-09-26T07:43:08.032Z,960.24
2016-09-26T07:44:07.542Z,960.18
2016-09-26T07:45:08.099Z,960.21
2016-09-26T07:46:07.589Z,960.19
2016-09-26T07:47:08.089Z,960.17
2016-09-26T07:48:07.638Z,960.16
2016-09-26T07:49:08.209Z,960.11
2016-09-26T07:50:08.073Z,960.11
2016-09-26T07:51:07.560Z,960.10
2016-09-26T07:52:08.089Z,960.11
2016-09-26T07:53:07.703Z,960.10
2016-09-26T07:54:08.249Z,960.09
2016-09-26T07:55:07.864Z,960.10
2016-09-26T07:56:07.307Z,960.07
2016-09-26T07:57:07.898Z,960.07
2016-09-26T07:58:07.561Z,960.09
2016-09-26T07:59:08.136Z,960.09
2016-09-26T08:00:07.782Z,960.09
2016-09-26T08:01:07.290Z,960.10
2016-09-26T08:02:07.876Z,960.11
2016-09-26T08:03:07.395Z,960.09
2016-09-26T08:04:08.058Z,960.09
2016-09-26T08:05:07.650Z,960.06
2016-09-26T08:06:08.265Z,960.08
2016-09-26T08:07:07.901Z,960.08
2016-09-26T08:08:07.441Z,960.03
2016-09-26T08:09:07.968Z,960.04
2016-09-26T08:10:07.617Z,960.07
2016-09-26T08:11:08.189Z,960.09
2016-09-26T08:12:07.679Z,960.08
2016-09-26T08:13:08.176Z,960.09
2016-09-26T08:14:07.669Z,960.07
2016-09-26T08:15:08.288Z,960.01
2016-09-26T08:16:07.710Z,960.06
2016-09-26T08:17:08.457Z,960.07
2016-09-26T08:18:08.025Z,960.02
2016-09-26T08:19:07.689Z,960.07
2016-09-26T08:20:08.214Z,960.04
2016-09-26T08:21:07.707Z,960.06
2016-09-26T08:22:08.318Z,960.05
2016-09-26T08:23:07.791Z,960.08
2016-09-26T08:24:07.386Z,960.11
2016-09-26T08:25:13.736Z,960.08
2016-09-26T08:26:07.340Z,960.09
2016-09-26T08:27:07.816Z,960.10
2016-09-26T08:28:07.436Z,960.11
2016-09-26T08:29:08.009Z,960.07
2016-09-26T08:30:07.592Z,960.10
2016-09-26T08:31:08.161Z,960.08
2016-09-26T08:32:07.753Z,960.15
2016-09-26T08:33:08.340Z,960.12
2016-09-26T08:34:07.911Z,960.07
2016-09-26T08:35:07.536Z,960.11
2016-09-26T08:36:08.132Z,960.07
2016-09-26T08:37:07.698Z,960.08
2016-09-26T08:38:08.332Z,960.08
2016-09-26T08:39:07.935Z,960.05
2016-09-26T08:40:07.439Z,960.04
2016-09-26T08:41:07.971Z,960.11
2016-09-26T08:42:07.541Z,960.09
2016-09-26T08:43:08.145Z,960.06
2016-09-26T08:44:07.720Z,960.08
2016-09-26T08:45:08.348Z,960.11
2016-09-26T08:46:07.823Z,960.07
2016-09-26T08:47:07.387Z,960.07
2016-09-26T08:48:07.854Z,960.09
2016-09-26T08:49:07.356Z,960.11
2016-09-26T08:50:07.943Z,960.08
2016-09-26T08:51:07.513Z,960.05
2016-09-26T08:52:08.033Z,960.08
2016-09-26T08:53:07.657Z,960.10
2016-09-26T08:54:08.284Z,960.10
2016-09-26T08:55:07.795Z,960.10
2016-09-26T08:56:07.414Z,960.12
2016-09-26T08:57:08.014Z,960.11
2016-09-26T08:58:07.604Z,960.15
2016-09-26T08:59:08.271Z,960.13
2016-09-26T09:00:07.753Z,960.17
2016-09-26T09:01:08.347Z,960.16
2016-09-26T09:02:07.843Z,960.19
2016-09-26T09:03:07.455Z,960.20
2016-09-26T09:04:07.943Z,960.17
2016-09-26T09:05:07.414Z,960.18
2016-09-26T09:06:07.660Z,960.17
2016-09-26T09:07:08.313Z,960.19
2016-09-26T09:08:07.879Z,960.15
2016-09-26T09:09:07.450Z,960.18
2016-09-26T09:10:07.983Z,960.17
2016-09-26T09:11:07.581Z,960.15
2016-09-26T09:12:08.095Z,960.16
2016-09-26T09:13:07.726Z,960.18
2016-09-26T09:14:08.347Z,960.14
2016-09-26T09:15:07.849Z,960.11
2016-09-26T09:16:07.394Z,960.11
2016-09-26T09:17:08.052Z,960.13
2016-09-26T09:18:07.606Z,960.16
2016-09-26T09:19:08.160Z,960.12
2016-09-26T09:20:07.752Z,960.16
2016-09-26T09:21:08.384Z,960.14
2016-09-26T09:22:07.975Z,960.13
2016-09-26T09:23:07.439Z,960.10
2016-09-26T09:24:08.025Z,960.12
2016-09-26T09:25:07.544Z,960.12
2016-09-26T09:26:08.128Z,960.13
2016-09-26T09:27:07.724Z,960.11
2016-09-26T09:28:08.303Z,960.14
2016-09-26T09:29:07.345Z,960.14
2016-09-26T09:30:07.905Z,960.08
2016-09-26T09:31:07.489Z,960.13
2016-09-26T09:32:08.158Z,960.12
2016-09-26T09:33:07.717Z,960.09
2016-09-26T09:34:08.348Z,960.10
2016-09-26T09:35:07.912Z,960.10
2016-09-26T09:36:07.404Z,960.10
2016-09-26T09:37:07.901Z,960.07
2016-09-26T09:38:07.443Z,960.08
2016-09-26T09:39:08.065Z,960.07
2016-09-26T09:40:07.675Z,960.05
2016-09-26T09:41:08.256Z,960.03
2016-09-26T09:42:07.809Z,960.00
2016-09-26T09:43:07.358Z,960.01
2016-09-26T09:44:07.880Z,959.96
2016-09-26T09:45:07.417Z,959.96
2016-09-26T09:46:07.995Z,960.00
2016-09-26T09:47:07.470Z,960.02
2016-09-26T09:48:07.978Z,960.02
2016-09-26T09:49:07.482Z,960.02
2016-09-26T09:50:08.083Z,960.04
2016-09-26T09:51:07.628Z,959.99
2016-09-26T09:52:08.184Z,960.00
2016-09-26T09:53:07.805Z,960.05
2016-09-26T09:54:07.301Z,960.01
2016-09-26T09:55:07.892Z,960.00
2016-09-26T09:56:07.421Z,960.00
2016-09-26T09:57:08.050Z,959.98
2016-09-26T09:58:07.532Z,960.01
2016-09-26T09:59:08.100Z,959.98
2016-09-26T10:00:07.604Z,959.98
2016-09-26T10:01:08.084Z,960.02
2016-09-26T10:02:07.570Z,959.97
2016-09-26T10:03:08.119Z,959.97
2016-09-26T10:04:07.686Z,959.98
2016-09-26T10:05:08.247Z,959.98
2016-09-26T10:06:07.729Z,959.96
2016-09-26T10:07:08.324Z,959.93
2016-09-26T10:08:07.931Z,959.94
2016-09-26T10:09:07.413Z,959.92
2016-09-26T10:10:07.926Z,959.95
2016-09-26T10:11:07.505Z,959.94
2016-09-26T10:12:08.127Z,959.95
2016-09-26T10:13:07.742Z,959.96
2016-09-26T10:14:08.297Z,959.98
2016-09-26T10:15:07.846Z,960.03
2016-09-26T10:16:07.315Z,960.00
2016-09-26T10:17:08.068Z,960.01
2016-09-26T10:18:07.617Z,959.99
2016-09-26T10:19:08.229Z,960.01
2016-09-26T10:20:07.683Z,959.96
2016-09-26T10:21:08.325Z,959.96
2016-09-26T10:22:07.794Z,959.98
2016-09-26T10:23:07.888Z,959.97
2016-09-26T10:24:07.483Z,959.95
2016-09-26T10:25:08.149Z,959.98
2016-09-26T10:26:07.743Z,959.98
2016-09-26T10:27:08.324Z,959.98
2016-09-26T10:28:07.905Z,960.03
2016-09-26T10:29:07.446Z,959.94
2016-09-26T10:30:08.012Z,959.99
2016-09-26T10:31:07.555Z,959.95
2016-09-26T10:32:08.134Z,960.01
2016-09-26T10:33:07.741Z,960.00
2016-09-26T10:34:08.352Z,959.98
2016-09-26T10:35:07.932Z,959.96
2016-09-26T10:36:07.424Z,959.98
2016-09-26T10:37:07.981Z,959.94
2016-09-26T10:38:07.542Z,960.01
2016-09-26T10:39:08.098Z,960.00
2016-09-26T10:40:07.705Z,960.02
2016-09-26T10:41:08.302Z,960.01
2016-09-26T10:42:07.875Z,960.01
2016-09-26T10:43:07.459Z,959.97
2016-09-26T10:44:08.014Z,960.01
2016-09-26T10:45:07.579Z,959.96
2016-09-26T10:46:08.133Z,959.93
2016-09-26T10:47:07.678Z,959.98
2016-09-26T10:48:08.208Z,959.95
2016-09-26T10:49:07.802Z,959.96
2016-09-26T10:50:07.363Z,959.98
2016-09-26T10:51:07.887Z,960.00
2016-09-26T10:52:07.388Z,959.96
2016-09-26T10:53:08.026Z,959.96
2016-09-26T10:54:07.571Z,959.92
2016-09-26T10:55:08.165Z,959.95
2016-09-26T10:56:07.677Z,959.93
2016-09-26T10:57:08.275Z,959.91
2016-09-26T10:58:07.801Z,959.91
2016-09-26T10:59:07.274Z,959.89
2016-09-26T11:00:07.773Z,959.92
2016-09-26T11:01:14.748Z,959.91
2016-09-26T11:02:07.258Z,959.90
2016-09-26T11:03:07.836Z,959.92
2016-09-26T11:04:07.309Z,959.90
2016-09-26T11:05:08.006Z,959.92
2016-09-26T11:06:07.529Z,959.90
2016-09-26T11:07:08.051Z,959.97
2016-09-26T11:08:07.651Z,959.93
2016-09-26T11:09:08.169Z,959.92
2016-09-26T11:10:07.606Z,959.95
2016-09-26T11:11:08.247Z,959.91
2016-09-26T11:12:07.765Z,959.98
2016-09-26T11:13:08.423Z,959.93
2016-09-26T11:14:08.004Z,959.97
2016-09-26T11:15:07.553Z,959.99
2016-09-26T11:16:08.193Z,959.96
2016-09-26T11:17:07.886Z,959.98
2016-09-26T11:18:07.371Z,959.97
2016-09-26T11:19:07.925Z,960.02
2016-09-26T11:20:07.474Z,960.00
2016-09-26T11:21:07.977Z,959.98
2016-09-26T11:22:07.534Z,959.97
2016-09-26T11:23:08.293Z,959.96
2016-09-26T11:24:07.921Z,959.92
2016-09-26T11:25:07.401Z,959.92
2016-09-26T11:26:07.975Z,959.94
2016-09-26T11:27:07.573Z,959.92
2016-09-26T11:28:08.133Z,959.93
2016-09-26T11:29:07.729Z,959.91
2016-09-26T11:30:08.357Z,959.87
2016-09-26T11:31:07.919Z,959.86
2016-09-26T11:32:07.491Z,959.87
2016-09-26T11:33:07.974Z,959.84
2016-09-26T11:34:07.519Z,959.84
2016-09-26T11:35:08.116Z,959.83
2016-09-26T11:36:07.578Z,959.84
2016-09-26T11:37:08.104Z,959.85
2016-09-26T11:38:07.647Z,959.83
2016-09-26T11:39:08.275Z,959.79
2016-09-26T11:40:07.755Z,959.82
2016-09-26T11:41:08.228Z,959.80
2016-09-26T11:42:07.703Z,959.76
2016-09-26T11:43:08.230Z,959.76
2016-09-26T11:44:07.782Z,959.78
2016-09-26T11:45:07.417Z,959.81
2016-09-26T11:46:08.013Z,959.77
2016-09-26T11:47:07.518Z,959.73
2016-09-26T11:48:08.106Z,959.76
2016-09-26T11:49:07.573Z,959.76
2016-09-26T11:50:07.485Z,959.72
2016-09-26T11:51:08.780Z,959.73
2016-09-26T11:52:07.294Z,959.73
2016-09-26T11:53:07.878Z,959.72
2016-09-26T11:54:07.432Z,959.71
2016-09-26T11:55:07.966Z,959.72
2016-09-26T11:56:07.451Z,959.71
2016-09-26T11:57:08.002Z,959.71
2016-09-26T11:58:07.567Z,959.72
2016-09-26T11:59:08.112Z,959.71
2016-09-26T12:00:07.664Z,959.72
2016-09-26T12:01:08.254Z,959.74
2016-09-26T12:02:07.795Z,959.72
2016-09-26T12:03:07.249Z,959.68
2016-09-26T12:04:07.816Z,959.71
2016-09-26T12:05:07.394Z,959.69
2016-09-26T12:06:07.972Z,959.67
2016-09-26T12:07:07.486Z,959.69
2016-09-26T12:08:08.004Z,959.71
2016-09-26T12:09:07.520Z,959.73
2016-09-26T12:10:08.145Z,959.72
2016-09-26T12:11:07.732Z,959.71
2016-09-26T12:12:08.325Z,959.71
2016-09-26T12:13:07.854Z,959.71
2016-09-26T12:14:07.363Z,959.70
2016-09-26T12:15:07.985Z,959.65
2016-09-26T12:16:07.496Z,959.61
2016-09-26T12:17:08.288Z,959.62
2016-09-26T12:18:07.832Z,959.61
2016-09-26T12:19:07.365Z,959.60
2016-09-26T12:20:08.014Z,959.58
2016-09-26T12:21:07.526Z,959.56
2016-09-26T12:22:08.131Z,959.58
2016-09-26T12:23:07.598Z,959.56
2016-09-26T12:24:08.182Z,959.57
2016-09-26T12:25:07.833Z,959.54
2016-09-26T12:26:07.338Z,959.53
2016-09-26T12:27:07.919Z,959.52
2016-09-26T12:28:07.465Z,959.57